createdAt,value
2022-09-05T00:01:55.404Z,80.00
2022-09-05T00:04:29.342Z,80.10
2022-09-05T00:07:10.873Z,80.10
2022-09-05T00:10:37.248Z,80.10
2022-09-05T00:13:10.674Z,80.20
2022-09-05T00:15:56.981Z,80.30
2022-09-05T00:23:29.091Z,80.20
2022-09-05T00:24:25.584Z,80.30
2022-09-05T00:24:54.800Z,80.30
2022-09-05T00:27:26.893Z,80.20
2022-09-05T00:31:05.501Z,80.30
2022-09-05T00:33:16.615Z,80.30
2022-09-05T00:36:06.577Z,80.20
2022-09-05T00:38:37.269Z,80.20
2022-09-05T00:41:10.285Z,80.20
2022-09-05T00:43:45.012Z,80.20
2022-09-05T00:46:20.124Z,80.20
2022-09-05T00:48:50.676Z,80.30
2022-09-05T00:51:35.987Z,80.30
2022-09-05T00:54:12.711Z,80.30
2022-09-05T00:57:07.929Z,80.30
2022-09-05T01:00:02.373Z,80.40
2022-09-05T01:02:36.465Z,80.30
2022-09-05T01:05:42.928Z,80.30
2022-09-05T01:08:13.954Z,80.30
2022-09-05T01:11:11.145Z,80.40
2022-09-05T01:14:26.400Z,80.40
2022-09-05T01:17:05.033Z,80.50
2022-09-05T01:19:41.099Z,80.40
2022-09-05T01:22:19.782Z,80.50
2022-09-05T01:25:08.043Z,80.60
2022-09-05T01:28:54.978Z,80.50
2022-09-05T01:30:57.243Z,80.60
2022-09-05T01:33:43.250Z,80.50
2022-09-05T01:36:09.953Z,80.40
2022-09-05T01:40:11.434Z,80.50
2022-09-05T01:42:38.995Z,80.60
2022-09-05T01:45:20.304Z,80.70
2022-09-05T01:48:30.276Z,80.60
2022-09-05T01:51:29.408Z,80.70
2022-09-05T01:54:16.113Z,80.70
2022-09-05T01:57:01.998Z,80.80
2022-09-05T01:59:58.145Z,80.70
2022-09-05T02:02:57.793Z,80.70
2022-09-05T02:05:52.617Z,80.80
2022-09-05T02:08:50.013Z,80.80
2022-09-05T02:11:44.726Z,80.70
2022-09-05T02:14:33.775Z,80.70
2022-09-05T02:17:28.567Z,80.90
2022-09-05T02:20:12.764Z,81.00
2022-09-05T02:22:50.471Z,80.90
2022-09-05T02:26:01.249Z,80.60
2022-09-05T02:28:54.529Z,80.70
2022-09-05T02:31:39.928Z,80.90
2022-09-05T02:34:21.931Z,80.80
2022-09-05T02:36:52.492Z,81.10
2022-09-05T02:45:09.643Z,81.10
2022-09-05T02:45:18.301Z,81.00
2022-09-05T02:45:50.447Z,81.00
2022-09-05T02:48:40.570Z,80.90
2022-09-05T02:57:17.283Z,81.00
2022-09-05T02:57:38.560Z,81.00
2022-09-05T02:58:06.264Z,81.10
2022-09-05T03:00:30.995Z,80.90
2022-09-05T03:03:27.471Z,80.90
2022-09-05T03:06:03.063Z,81.00
2022-09-05T03:09:24.122Z,80.90
2022-09-05T03:12:29.259Z,81.10
2022-09-05T03:15:35.364Z,81.30
2022-09-05T03:19:07.942Z,81.00
2022-09-05T03:21:34.584Z,81.10
2022-09-05T03:24:31.003Z,81.50
2022-09-05T03:27:29.222Z,81.60
2022-09-05T03:30:17.556Z,81.40
2022-09-05T03:32:53.081Z,81.30
2022-09-05T03:35:57.094Z,81.30
2022-09-05T03:38:38.172Z,81.30
2022-09-05T03:41:40.493Z,81.50
2022-09-05T03:44:21.856Z,81.50
2022-09-05T03:47:16.784Z,81.60
2022-09-05T03:54:25.894Z,81.70
2022-09-05T03:57:13.297Z,81.70
2022-09-05T03:57:13.876Z,81.60
2022-09-05T03:59:01.433Z,81.70
2022-09-05T04:04:14.212Z,81.70
2022-09-05T04:08:18.540Z,81.40
2022-09-05T04:08:23.703Z,81.70
2022-09-05T04:10:22.163Z,80.90
2022-09-05T04:16:44.911Z,82.00
2022-09-05T04:19:43.341Z,81.90
2022-09-05T04:22:35.112Z,81.90
2022-09-05T04:25:14.918Z,81.70
2022-09-05T04:28:02.696Z,81.80
2022-09-05T04:30:39.058Z,81.80
2022-09-05T04:33:36.392Z,81.50
2022-09-05T04:36:18.810Z,81.70
2022-09-05T04:38:46.396Z,82.50
2022-09-05T04:41:16.947Z,82.50
2022-09-05T04:43:51.853Z,82.60
2022-09-05T04:46:33.202Z,82.20
2022-09-05T04:49:30.135Z,82.40
2022-09-05T04:52:25.326Z,83.10
2022-09-05T04:55:09.066Z,82.30
2022-09-05T04:58:00.490Z,82.50
2022-09-05T05:06:04.087Z,82.40
2022-09-05T05:06:15.113Z,82.30
2022-09-05T05:06:47.127Z,82.30
2022-09-05T05:09:26.077Z,82.20
2022-09-05T05:17:56.296Z,82.60
2022-09-05T05:18:11.815Z,82.90
2022-09-05T05:18:42.257Z,82.80
2022-09-05T05:21:07.688Z,82.50
2022-09-05T05:23:36.711Z,82.50
2022-09-05T05:26:07.455Z,82.80
2022-09-05T05:28:56.517Z,82.70
2022-09-05T05:31:35.579Z,82.70
2022-09-05T05:34:09.730Z,82.50
2022-09-05T05:37:00.719Z,82.40
2022-09-05T05:39:29.791Z,81.10
2022-09-05T05:41:58.516Z,81.50
2022-09-05T05:44:35.966Z,81.80
2022-09-05T05:47:09.341Z,82.50
2022-09-05T05:49:44.955Z,82.60
2022-09-05T05:52:37.754Z,81.90
2022-09-05T05:55:53.514Z,78.80
2022-09-05T05:58:52.270Z,81.80
2022-09-05T06:01:37.634Z,82.20
2022-09-05T06:04:35.789Z,81.60
2022-09-05T06:07:30.422Z,81.90
2022-09-05T06:14:51.352Z,83.50
2022-09-05T06:15:08.996Z,83.40
2022-09-05T06:16:38.449Z,81.70
2022-09-05T06:21:11.417Z,80.90
2022-09-05T06:23:01.149Z,80.90
2022-09-05T06:26:17.082Z,81.80
2022-09-05T06:29:16.084Z,85.30
2022-09-05T06:32:06.898Z,86.30
2022-09-05T06:35:11.514Z,84.70
2022-09-05T06:37:55.323Z,84.30
2022-09-05T06:40:33.123Z,82.70
2022-09-05T06:43:03.515Z,84.10
2022-09-05T06:45:35.734Z,82.50
2022-09-05T06:48:44.644Z,83.10
2022-09-05T06:51:18.949Z,85.30
2022-09-05T06:54:02.419Z,83.80
2022-09-05T06:56:41.009Z,83.90
2022-09-05T06:59:30.100Z,82.30
2022-09-05T07:02:07.539Z,81.10
2022-09-05T07:05:24.778Z,81.40
2022-09-05T07:07:45.977Z,81.10
2022-09-05T07:10:39.208Z,79.20
2022-09-05T07:13:15.897Z,78.70
2022-09-05T07:15:52.486Z,82.20
2022-09-05T07:18:37.482Z,79.00
2022-09-05T07:21:26.711Z,81.00
2022-09-05T07:24:40.447Z,77.90
2022-09-05T07:27:09.015Z,77.00
2022-09-05T07:29:53.460Z,76.70
2022-09-05T07:32:29.814Z,76.80
2022-09-05T07:34:58.663Z,76.90
2022-09-05T07:37:35.789Z,77.50
2022-09-05T07:40:25.803Z,75.90
2022-09-05T07:43:08.997Z,76.10
2022-09-05T07:45:55.287Z,76.80
2022-09-05T07:48:35.185Z,73.30
2022-09-05T07:56:56.491Z,72.90
2022-09-05T07:57:15.732Z,76.00
2022-09-05T07:59:55.652Z,72.90
2022-09-05T08:02:22.607Z,71.20
2022-09-05T08:04:50.225Z,72.30
2022-09-05T08:07:49.823Z,73.50
2022-09-05T08:10:35.689Z,72.90
2022-09-05T08:13:27.444Z,72.50
2022-09-05T08:16:13.275Z,74.10
2022-09-05T08:19:04.813Z,74.30
2022-09-05T08:21:43.807Z,73.50
2022-09-05T08:24:21.164Z,72.20
2022-09-05T08:27:22.683Z,72.50
2022-09-05T08:30:26.083Z,72.10
2022-09-05T08:33:11.464Z,71.80
2022-09-05T08:35:43.214Z,73.10
2022-09-05T08:38:13.478Z,73.30
2022-09-05T08:40:56.581Z,73.00
2022-09-05T08:46:35.412Z,73.50
2022-09-05T08:46:49.733Z,69.40
2022-09-05T08:49:50.442Z,73.20
2022-09-05T08:52:48.902Z,73.50
2022-09-05T08:55:27.637Z,73.30
2022-09-05T08:58:09.248Z,71.10
2022-09-05T09:00:50.408Z,72.50
2022-09-05T09:03:43.025Z,68.80
2022-09-05T09:07:50.881Z,69.40
2022-09-05T09:09:58.690Z,71.80
2022-09-05T09:12:53.498Z,70.70
2022-09-05T09:15:45.085Z,69.50
2022-09-05T09:18:19.678Z,69.30
2022-09-05T09:21:19.252Z,72.00
2022-09-05T09:24:08.196Z,72.20
2022-09-05T09:26:56.152Z,69.00
2022-09-05T09:29:25.290Z,69.60
2022-09-05T09:31:59.193Z,67.10
2022-09-05T09:34:25.889Z,68.50
2022-09-05T09:37:03.231Z,69.40
2022-09-05T09:39:59.581Z,68.80
2022-09-05T09:42:53.909Z,67.70
2022-09-05T09:45:41.304Z,67.00
2022-09-05T09:48:42.396Z,66.00
2022-09-05T09:51:39.817Z,64.00
2022-09-05T09:54:56.610Z,68.00
2022-09-05T09:57:48.447Z,63.60
2022-09-05T10:00:21.292Z,63.00
2022-09-05T10:05:18.231Z,61.40
2022-09-05T10:10:35.163Z,62.70
2022-09-05T10:11:00.445Z,62.10
2022-09-05T10:12:16.659Z,62.10
2022-09-05T10:15:07.319Z,62.00
2022-09-05T10:18:05.528Z,60.00
2022-09-05T10:21:16.489Z,59.60
2022-09-05T10:24:14.935Z,58.20
2022-09-05T10:27:19.792Z,58.70
2022-09-05T10:30:06.425Z,61.10
2022-09-05T10:35:10.554Z,61.30
2022-09-05T10:35:47.628Z,57.70
2022-09-05T10:38:43.372Z,62.60
2022-09-05T10:41:20.975Z,58.30
2022-09-05T10:44:02.245Z,57.00
2022-09-05T10:46:50.172Z,58.50
2022-09-05T10:49:27.211Z,63.10
2022-09-05T10:52:18.859Z,63.50
2022-09-05T10:55:21.919Z,58.50
2022-09-05T10:58:33.852Z,59.90
2022-09-05T11:02:20.078Z,59.20
2022-09-05T11:04:57.464Z,64.90
2022-09-05T11:07:58.873Z,61.80
2022-09-05T11:10:37.253Z,56.10
2022-09-05T11:13:25.475Z,58.50
2022-09-05T11:16:13.478Z,61.40
2022-09-05T11:19:13.997Z,59.90
2022-09-05T11:22:15.197Z,61.60
2022-09-05T11:25:03.245Z,65.60
2022-09-05T11:27:38.177Z,65.60
2022-09-05T11:30:29.153Z,60.90
2022-09-05T11:36:32.299Z,66.10
2022-09-05T11:39:55.070Z,65.10
2022-09-05T11:40:02.602Z,65.70
2022-09-05T11:42:28.871Z,67.40
2022-09-05T11:45:33.833Z,68.20
2022-09-05T11:48:31.488Z,63.60
2022-09-05T11:51:37.067Z,57.20
2022-09-05T11:54:21.751Z,61.10
2022-09-05T11:57:33.858Z,63.50
2022-09-05T12:00:33.041Z,62.60
2022-09-05T12:03:58.037Z,56.70
2022-09-05T12:06:31.627Z,62.50
2022-09-05T12:09:09.018Z,58.50
2022-09-05T12:12:02.695Z,61.90
2022-09-05T12:15:00.109Z,60.80
2022-09-05T12:18:03.730Z,62.00
2022-09-05T12:20:51.932Z,59.30
2022-09-05T12:24:50.049Z,58.00
2022-09-05T12:27:42.788Z,60.00
2022-09-05T12:29:36.216Z,63.80
2022-09-05T12:33:33.868Z,60.00
2022-09-05T12:36:09.835Z,57.20
2022-09-05T12:40:38.344Z,58.20
2022-09-05T12:41:45.125Z,56.90
2022-09-05T12:44:42.203Z,57.90
2022-09-05T12:47:19.855Z,64.10
2022-09-05T12:50:02.490Z,62.50
2022-09-05T12:52:33.787Z,58.50
2022-09-05T12:55:08.021Z,57.40
2022-09-05T13:02:34.728Z,62.70
2022-09-05T13:03:03.808Z,59.50
2022-09-05T13:03:29.990Z,57.30
2022-09-05T13:06:06.367Z,57.30
2022-09-05T13:08:59.905Z,59.40
2022-09-05T13:14:46.328Z,60.60
2022-09-05T13:14:52.851Z,56.70
2022-09-05T13:17:44.323Z,57.00
2022-09-05T13:20:36.688Z,59.40
2022-09-05T13:23:17.037Z,59.40
2022-09-05T13:25:58.406Z,63.30
2022-09-05T13:29:09.810Z,59.60
2022-09-05T13:37:04.871Z,57.80
2022-09-05T13:38:01.020Z,57.20
2022-09-05T13:38:30.932Z,62.60
2022-09-05T13:40:31.531Z,58.10
2022-09-05T13:43:14.682Z,62.50
2022-09-05T13:46:17.176Z,57.70
2022-09-05T13:51:51.145Z,58.10
2022-09-05T13:54:51.689Z,59.10
2022-09-05T13:57:33.684Z,57.80
2022-09-05T14:00:15.114Z,58.30
2022-09-05T14:03:56.491Z,60.40
2022-09-05T14:10:35.654Z,57.70
2022-09-05T14:13:15.335Z,55.20
2022-09-05T14:16:08.017Z,58.90
2022-09-05T14:19:04.421Z,58.20
2022-09-05T14:21:34.102Z,62.20
2022-09-05T14:24:27.460Z,57.40
2022-09-05T14:27:30.337Z,55.90
2022-09-05T14:30:01.004Z,59.40
2022-09-05T14:37:43.039Z,56.00
2022-09-05T14:38:01.535Z,58.70
2022-09-05T14:39:52.334Z,54.40
2022-09-05T14:42:40.739Z,55.10
2022-09-05T14:45:26.297Z,55.00
2022-09-05T14:48:24.783Z,54.50
2022-09-05T14:51:28.709Z,55.60
2022-09-05T14:53:59.766Z,57.00
2022-09-05T14:59:39.199Z,54.60
2022-09-05T15:02:52.914Z,53.90
2022-09-05T15:03:00.797Z,57.10
2022-09-05T15:05:29.576Z,54.20
2022-09-05T15:08:33.255Z,53.90
2022-09-05T15:12:16.012Z,53.80
2022-09-05T15:14:01.434Z,53.10
2022-09-05T15:16:29.008Z,53.60
2022-09-05T15:19:01.180Z,54.20
2022-09-05T15:21:41.162Z,53.80
2022-09-05T15:24:17.483Z,52.30
2022-09-05T15:26:52.692Z,55.00
2022-09-05T15:29:28.697Z,54.50
2022-09-05T15:32:16.368Z,53.90
2022-09-05T15:34:43.209Z,52.30
2022-09-05T15:37:33.292Z,52.70
2022-09-05T15:40:22.358Z,51.40
2022-09-05T15:43:00.711Z,52.10
2022-09-05T15:45:36.616Z,52.10
2022-09-05T15:48:18.351Z,52.90
2022-09-05T15:50:52.518Z,52.10
2022-09-05T15:53:34.170Z,54.30
2022-09-05T15:56:09.911Z,55.70
2022-09-05T15:58:53.204Z,52.20
2022-09-05T16:01:48.673Z,53.40
2022-09-05T16:09:45.181Z,53.80
2022-09-05T16:10:42.369Z,52.60
2022-09-05T16:10:45.313Z,52.80
2022-09-05T16:12:47.470Z,55.00
2022-09-05T16:19:34.883Z,55.90
2022-09-05T16:23:13.392Z,56.60
2022-09-05T16:23:33.602Z,57.70
2022-09-05T16:24:28.566Z,58.70
2022-09-05T16:27:11.614Z,59.70
2022-09-05T16:29:46.322Z,57.80
2022-09-05T16:32:25.549Z,56.50
2022-09-05T16:34:58.392Z,58.70
2022-09-05T16:37:38.070Z,60.20
2022-09-05T16:40:19.881Z,57.60
2022-09-05T16:42:56.404Z,56.30
2022-09-05T16:45:43.002Z,58.90
2022-09-05T16:48:36.864Z,59.40
2022-09-05T16:51:15.720Z,61.30
2022-09-05T16:54:00.566Z,63.40
2022-09-05T16:56:36.918Z,63.70
2022-09-05T16:59:15.846Z,64.60
2022-09-05T17:02:06.359Z,62.90
2022-09-05T17:05:03.495Z,63.60
2022-09-05T17:07:42.148Z,62.80
2022-09-05T17:10:15.351Z,61.40
2022-09-05T17:12:42.908Z,60.70
2022-09-05T17:15:11.866Z,60.60
2022-09-05T17:18:21.719Z,61.40
2022-09-05T17:20:54.342Z,61.60
2022-09-05T17:29:12.990Z,61.30
2022-09-05T17:29:28.156Z,61.90
2022-09-05T17:29:47.188Z,61.60
2022-09-05T17:32:04.492Z,61.70
2022-09-05T17:35:17.496Z,61.90
2022-09-05T17:38:11.900Z,61.60
2022-09-05T17:40:42.718Z,61.70
2022-09-05T17:43:28.524Z,62.20
2022-09-05T17:46:13.531Z,62.20
2022-09-05T17:48:46.302Z,62.40
2022-09-05T17:51:26.841Z,63.10
2022-09-05T17:54:07.877Z,62.30
2022-09-05T17:56:37.751Z,62.20
2022-09-05T17:59:13.489Z,62.70
2022-09-05T18:01:46.110Z,62.70
2022-09-05T18:04:48.933Z,62.70
2022-09-05T18:07:29.270Z,63.50
2022-09-05T18:10:03.565Z,64.10
2022-09-05T18:13:12.495Z,63.60
2022-09-05T18:15:32.529Z,64.50
2022-09-05T18:18:36.772Z,64.40
2022-09-05T18:24:07.915Z,65.20
2022-09-05T18:26:43.180Z,65.90
2022-09-05T18:29:28.741Z,66.70
2022-09-05T18:32:47.280Z,66.50
2022-09-05T18:35:37.784Z,66.10
2022-09-05T18:38:08.882Z,66.20
2022-09-05T18:40:53.031Z,65.80
2022-09-05T18:44:12.437Z,65.60
2022-09-05T18:46:43.032Z,65.40
2022-09-05T18:50:21.377Z,65.00
2022-09-05T18:52:24.384Z,65.80
2022-09-05T18:56:08.888Z,65.70
2022-09-05T18:57:58.998Z,66.90
2022-09-05T19:00:49.240Z,66.50
2022-09-05T19:03:19.101Z,66.40
2022-09-05T19:06:34.865Z,66.30
2022-09-05T19:08:58.355Z,66.20
2022-09-05T19:11:31.728Z,66.10
2022-09-05T19:14:25.369Z,66.40
2022-09-05T19:17:03.420Z,65.80
2022-09-05T19:20:32.728Z,66.40
2022-09-05T19:23:10.803Z,67.00
2022-09-05T19:25:48.212Z,67.80
2022-09-05T19:33:17.060Z,67.30
2022-09-05T19:36:49.644Z,68.30
2022-09-05T19:37:07.769Z,71.80
2022-09-05T19:37:30.099Z,71.30
2022-09-05T19:44:09.024Z,72.80
2022-09-05T19:47:26.914Z,68.80
2022-09-05T19:47:36.180Z,69.00
2022-09-05T19:48:27.949Z,72.00
2022-09-05T19:51:16.100Z,72.40
2022-09-05T19:53:55.216Z,68.10
2022-09-05T19:56:44.336Z,69.50
2022-09-05T19:59:22.866Z,68.80
2022-09-05T20:01:51.855Z,69.70
2022-09-05T20:04:19.867Z,73.00
2022-09-05T20:06:48.818Z,70.80
2022-09-05T20:09:18.939Z,75.70
2022-09-05T20:11:47.263Z,71.40
2022-09-05T20:14:24.770Z,73.20
2022-09-05T20:16:54.633Z,71.10
2022-09-05T20:19:31.750Z,72.50
2022-09-05T20:22:45.837Z,71.50
2022-09-05T20:24:55.713Z,71.70
2022-09-05T20:27:27.589Z,72.40
2022-09-05T20:30:01.614Z,73.40
2022-09-05T20:32:40.210Z,72.90
2022-09-05T20:39:08.656Z,73.30
2022-09-05T20:43:09.963Z,74.80
2022-09-05T20:43:30.511Z,77.10
2022-09-05T20:44:19.658Z,77.10
2022-09-05T20:54:06.525Z,76.70
2022-09-05T20:54:09.012Z,75.40
2022-09-05T20:54:16.036Z,79.70
2022-09-05T20:55:41.276Z,81.90
2022-09-05T20:58:10.474Z,82.40
2022-09-05T21:00:41.655Z,81.20
2022-09-05T21:03:31.236Z,84.30
2022-09-05T21:06:23.490Z,84.90
2022-09-05T21:08:52.287Z,82.00
2022-09-05T21:11:29.751Z,82.10
2022-09-05T21:13:59.714Z,82.40
2022-09-05T21:16:33.596Z,83.70
2022-09-05T21:19:00.360Z,80.60
2022-09-05T21:21:30.401Z,82.10
2022-09-05T21:24:16.796Z,79.10
2022-09-05T21:26:49.350Z,77.70
2022-09-05T21:29:32.366Z,82.50
2022-09-05T21:32:01.810Z,78.10
2022-09-05T21:34:31.005Z,78.30
2022-09-05T21:37:07.313Z,78.40
2022-09-05T21:39:38.111Z,80.00
2022-09-05T21:43:26.163Z,80.90
2022-09-05T21:47:43.758Z,79.60
2022-09-05T21:47:52.100Z,80.90
2022-09-05T21:50:31.481Z,79.20
2022-09-05T21:53:45.283Z,79.50
2022-09-05T21:59:24.926Z,81.00
2022-09-05T21:59:30.191Z,80.50
2022-09-05T22:01:50.993Z,80.40
2022-09-05T22:04:13.784Z,83.30
2022-09-05T22:06:40.479Z,83.80
2022-09-05T22:09:13.841Z,83.80
2022-09-05T22:11:41.200Z,82.00
2022-09-05T22:14:09.114Z,80.30
2022-09-05T22:16:40.043Z,80.80
2022-09-05T22:19:15.607Z,81.40
2022-09-05T22:21:42.334Z,80.90
2022-09-05T22:24:12.128Z,83.90
2022-09-05T22:27:10.879Z,81.50
2022-09-05T22:29:35.441Z,81.70
2022-09-05T22:32:02.335Z,82.00
2022-09-05T22:34:29.091Z,86.80
2022-09-05T22:36:56.101Z,88.10
2022-09-05T22:39:37.151Z,83.80
2022-09-05T22:42:43.295Z,83.40
2022-09-05T22:45:10.162Z,80.80
2022-09-05T22:47:36.824Z,82.60
2022-09-05T22:50:03.769Z,82.70
2022-09-05T22:52:30.426Z,82.50
2022-09-05T22:54:57.125Z,83.10
2022-09-05T22:57:23.788Z,83.10
2022-09-05T22:59:50.536Z,83.30
2022-09-05T23:02:17.207Z,83.00
2022-09-05T23:04:43.937Z,83.30
2022-09-05T23:07:10.647Z,83.80
2022-09-05T23:09:37.352Z,83.80
2022-09-05T23:12:04.202Z,83.40
2022-09-05T23:14:30.954Z,85.10
2022-09-05T23:16:57.704Z,85.30
2022-09-05T23:19:24.415Z,84.30
2022-09-05T23:21:51.123Z,86.50
2022-09-05T23:24:17.922Z,85.20
2022-09-05T23:26:44.664Z,84.20
2022-09-05T23:29:11.442Z,84.70
2022-09-05T23:31:38.228Z,84.60
2022-09-05T23:34:04.966Z,87.10
2022-09-05T23:36:31.809Z,86.50
2022-09-05T23:38:58.632Z,87.00
2022-09-05T23:41:25.570Z,87.50
2022-09-05T23:44:01.393Z,89.30
2022-09-05T23:46:37.338Z,87.40
2022-09-05T23:49:10.219Z,86.00
2022-09-05T23:51:36.894Z,86.30
2022-09-05T23:54:03.577Z,86.10
2022-09-05T23:56:32.898Z,86.10
2022-09-05T23:58:59.637Z,86.50
